createdAt,value
2019-02-05T00:00:02.601Z,9.43
2019-02-05T00:02:30.045Z,11.20
2019-02-05T00:04:57.447Z,9.83
2019-02-05T00:07:24.876Z,10.83
2019-02-05T00:09:52.286Z,11.03
2019-02-05T00:12:19.709Z,15.27
2019-02-05T00:14:47.122Z,11.77
2019-02-05T00:17:14.553Z,9.57
2019-02-05T00:19:41.982Z,11.73
2019-02-05T00:22:09.394Z,10.03
2019-02-05T00:24:36.822Z,10.57
2019-02-05T00:27:04.272Z,13.30
2019-02-05T00:29:31.704Z,10.63
2019-02-05T00:31:59.070Z,11.57
2019-02-05T00:34:26.510Z,11.83
2019-02-05T00:36:53.912Z,15.33
2019-02-05T00:39:21.334Z,13.10
2019-02-05T00:41:48.743Z,12.37
2019-02-05T00:44:16.194Z,16.00
2019-02-05T00:46:43.621Z,14.53
2019-02-05T00:49:11.033Z,11.97
2019-02-05T00:51:38.491Z,17.03
2019-02-05T00:54:05.899Z,15.23
2019-02-05T00:56:33.291Z,12.33
2019-02-05T00:59:00.732Z,17.43
2019-02-05T01:01:28.177Z,15.43
2019-02-05T01:03:55.619Z,12.60
2019-02-05T01:06:23.043Z,14.20
2019-02-05T01:08:50.444Z,15.33
2019-02-05T01:11:17.895Z,13.70
2019-02-05T01:13:45.294Z,12.93
2019-02-05T01:16:12.737Z,12.13
2019-02-05T01:18:40.145Z,16.40
2019-02-05T01:21:07.572Z,13.27
2019-02-05T01:23:34.971Z,15.40
2019-02-05T01:26:02.450Z,14.83
2019-02-05T01:28:29.814Z,15.67
2019-02-05T01:30:57.250Z,17.23
2019-02-05T01:33:24.666Z,18.00
2019-02-05T01:35:52.122Z,16.60
2019-02-05T01:38:19.548Z,16.33
2019-02-05T01:40:46.979Z,18.63
2019-02-05T01:43:14.408Z,16.47
2019-02-05T01:45:41.821Z,17.67
2019-02-05T01:48:09.239Z,18.77
2019-02-05T01:50:36.696Z,17.77
2019-02-05T01:53:04.107Z,20.70
2019-02-05T01:55:31.519Z,18.47
2019-02-05T01:57:58.957Z,17.20
2019-02-05T02:00:32.113Z,20.00
2019-02-05T02:02:59.549Z,17.13
2019-02-05T02:05:26.956Z,16.00
2019-02-05T02:07:54.436Z,19.37
2019-02-05T02:10:24.284Z,15.33
2019-02-05T02:12:51.722Z,16.23
2019-02-05T02:15:19.133Z,20.80
2019-02-05T02:17:46.539Z,20.03
2019-02-05T02:20:13.971Z,17.37
2019-02-05T02:22:41.403Z,19.20
2019-02-05T02:25:08.846Z,18.60
2019-02-05T02:27:36.299Z,21.00
2019-02-05T02:30:03.696Z,16.17
2019-02-05T02:32:31.110Z,17.23
2019-02-05T02:34:58.560Z,19.67
2019-02-05T02:37:25.985Z,22.07
2019-02-05T02:39:53.440Z,22.00
2019-02-05T02:42:20.878Z,20.03
2019-02-05T02:44:48.284Z,19.77
2019-02-05T02:47:15.724Z,18.93
2019-02-05T02:49:43.164Z,19.67
2019-02-05T02:52:10.576Z,21.77
2019-02-05T02:54:38.005Z,19.03
2019-02-05T02:57:05.413Z,21.10
2019-02-05T02:59:32.858Z,21.23
2019-02-05T03:02:00.288Z,21.97
2019-02-05T03:04:27.701Z,21.67
2019-02-05T03:06:55.129Z,19.67
2019-02-05T03:09:22.538Z,21.57
2019-02-05T03:11:49.980Z,22.77
2019-02-05T03:14:17.384Z,22.97
2019-02-05T03:16:44.833Z,18.80
2019-02-05T03:19:12.278Z,22.70
2019-02-05T03:21:39.688Z,19.93
2019-02-05T03:24:07.120Z,22.53
2019-02-05T03:26:34.539Z,22.10
2019-02-05T03:29:01.971Z,21.97
2019-02-05T03:31:29.383Z,19.10
2019-02-05T03:33:56.823Z,22.50
2019-02-05T03:36:24.433Z,21.67
2019-02-05T03:38:51.717Z,19.63
2019-02-05T03:41:19.132Z,20.17
2019-02-05T03:43:46.539Z,22.27
2019-02-05T03:46:13.996Z,20.53
2019-02-05T03:48:41.390Z,18.20
2019-02-05T03:51:08.838Z,19.47
2019-02-05T03:54:03.778Z,18.67
2019-02-05T03:56:39.767Z,18.70
2019-02-05T03:59:07.184Z,19.40
2019-02-05T04:01:58.975Z,20.87
2019-02-05T04:04:41.309Z,23.90
2019-02-05T04:07:35.651Z,20.70
2019-02-05T04:10:33.530Z,25.33
2019-02-05T04:13:25.007Z,20.93
2019-02-05T04:16:03.820Z,22.17
2019-02-05T04:18:49.327Z,19.83
2019-02-05T04:21:49.615Z,23.13
2019-02-05T04:24:19.744Z,21.17
2019-02-05T04:27:11.515Z,21.27
2019-02-05T04:29:59.853Z,21.20
2019-02-05T04:32:27.262Z,21.30
2019-02-05T04:35:31.538Z,23.50
2019-02-05T04:38:14.041Z,19.83
2019-02-05T04:40:59.929Z,23.27
2019-02-05T04:43:45.147Z,20.90
2019-02-05T04:46:24.437Z,19.80
2019-02-05T04:48:51.873Z,20.77
2019-02-05T04:51:37.566Z,27.47
2019-02-05T04:54:10.758Z,19.73
2019-02-05T04:56:52.772Z,19.47
2019-02-05T04:59:20.216Z,21.07
2019-02-05T05:02:08.456Z,21.23
2019-02-05T05:04:50.808Z,19.70
2019-02-05T05:07:27.293Z,22.27
2019-02-05T05:09:57.338Z,19.63
2019-02-05T05:12:24.752Z,21.27
2019-02-05T05:14:52.177Z,17.73
2019-02-05T05:17:19.597Z,20.73
2019-02-05T05:19:47.008Z,18.93
2019-02-05T05:22:14.432Z,19.57
2019-02-05T05:24:41.841Z,20.57
2019-02-05T05:27:09.264Z,20.03
2019-02-05T05:29:36.689Z,21.97
2019-02-05T05:32:04.107Z,20.40
2019-02-05T05:34:31.556Z,21.43
2019-02-05T05:36:58.434Z,20.40
2019-02-05T05:39:25.863Z,24.13
2019-02-05T05:41:53.287Z,21.93
2019-02-05T05:44:20.686Z,20.40
2019-02-05T05:46:48.118Z,25.27
2019-02-05T05:49:15.526Z,20.00
2019-02-05T05:51:42.959Z,21.00
2019-02-05T05:54:10.378Z,24.63
2019-02-05T05:56:37.825Z,23.77
2019-02-05T05:59:05.243Z,24.47
2019-02-05T06:01:32.717Z,21.37
2019-02-05T06:04:00.101Z,20.70
2019-02-05T06:06:27.520Z,26.33
2019-02-05T06:08:54.949Z,20.33
2019-02-05T06:11:22.374Z,27.10
2019-02-05T06:13:49.810Z,24.70
2019-02-05T06:16:17.222Z,27.87
2019-02-05T06:18:44.663Z,26.60
2019-02-05T06:21:13.754Z,29.67
2019-02-05T06:23:39.548Z,27.10
2019-02-05T06:26:06.979Z,31.40
2019-02-05T06:28:35.012Z,30.10
2019-02-05T06:31:01.827Z,28.17
2019-02-05T06:33:29.256Z,28.37
2019-02-05T06:35:56.662Z,28.77
2019-02-05T06:38:24.099Z,26.37
2019-02-05T06:40:51.504Z,24.23
2019-02-05T06:43:18.934Z,28.47
2019-02-05T06:45:46.340Z,27.13
2019-02-05T06:48:13.749Z,28.67
2019-02-05T06:50:41.169Z,25.90
2019-02-05T06:53:08.607Z,25.83
2019-02-05T06:55:36.015Z,27.97
2019-02-05T06:58:03.489Z,22.43
2019-02-05T07:00:30.866Z,29.13
2019-02-05T07:02:58.290Z,28.40
2019-02-05T07:05:25.778Z,32.27
2019-02-05T07:07:53.235Z,28.90
2019-02-05T07:10:20.695Z,32.10
2019-02-05T07:12:48.196Z,31.37
2019-02-05T07:15:15.652Z,29.20
2019-02-05T07:17:49.789Z,33.87
2019-02-05T07:20:10.601Z,40.07
2019-02-05T07:22:38.079Z,35.47
2019-02-05T07:25:11.060Z,36.13
2019-02-05T07:27:38.540Z,32.50
2019-02-05T07:30:05.997Z,36.33
2019-02-05T07:32:33.474Z,35.93
2019-02-05T07:35:00.957Z,32.63
2019-02-05T07:37:28.411Z,36.40
2019-02-05T07:39:55.893Z,29.63
2019-02-05T07:42:23.349Z,28.67
2019-02-05T07:44:50.816Z,25.20
2019-02-05T07:47:18.293Z,28.70
2019-02-05T07:49:45.749Z,35.80
2019-02-05T07:52:13.375Z,34.50
2019-02-05T07:54:40.801Z,31.87
2019-02-05T07:57:08.293Z,33.60
2019-02-05T07:59:35.762Z,33.30
2019-02-05T08:02:03.231Z,36.20
2019-02-05T08:04:30.703Z,33.57
2019-02-05T08:06:58.180Z,32.23
2019-02-05T08:09:25.656Z,34.87
2019-02-05T08:11:53.144Z,33.43
2019-02-05T08:14:20.605Z,31.00
2019-02-05T08:16:48.180Z,30.47
2019-02-05T08:19:15.583Z,30.47
2019-02-05T08:21:43.044Z,30.73
2019-02-05T08:24:10.523Z,31.03
2019-02-05T08:26:38.002Z,29.17
2019-02-05T08:29:05.459Z,30.20
2019-02-05T08:31:32.931Z,28.43
2019-02-05T08:34:03.250Z,29.53
2019-02-05T08:36:27.870Z,31.97
2019-02-05T08:38:55.356Z,28.67
2019-02-05T08:41:22.844Z,28.90
2019-02-05T08:43:50.307Z,31.93
2019-02-05T08:46:17.796Z,37.87
2019-02-05T08:48:45.250Z,31.23
2019-02-05T08:51:12.698Z,30.77
2019-02-05T08:53:40.184Z,38.87
2019-02-05T08:56:07.647Z,37.70
2019-02-05T08:58:35.125Z,35.70
2019-02-05T09:01:02.592Z,37.20
2019-02-05T09:03:30.081Z,34.80
2019-02-05T09:05:57.569Z,31.20
2019-02-05T09:08:25.024Z,30.90
2019-02-05T09:10:52.476Z,31.97
2019-02-05T09:13:19.962Z,30.67
2019-02-05T09:15:47.419Z,34.70
2019-02-05T09:18:14.897Z,37.43
2019-02-05T09:20:42.378Z,31.03
2019-02-05T09:23:09.832Z,34.27
2019-02-05T09:25:37.440Z,38.47
2019-02-05T09:28:04.809Z,33.63
2019-02-05T09:30:32.267Z,34.83
2019-02-05T09:32:59.743Z,31.57
2019-02-05T09:35:27.198Z,34.67
2019-02-05T09:37:57.585Z,32.77
2019-02-05T09:40:22.177Z,37.57
2019-02-05T09:42:49.631Z,32.33
2019-02-05T09:45:17.095Z,32.27
2019-02-05T09:47:44.581Z,33.70
2019-02-05T09:50:12.059Z,38.77
2019-02-05T09:52:39.536Z,34.63
2019-02-05T09:55:06.996Z,31.87
2019-02-05T09:57:34.479Z,32.97
2019-02-05T10:00:01.937Z,34.00
2019-02-05T10:02:29.411Z,35.50
2019-02-05T10:04:56.907Z,43.00
2019-02-05T10:07:24.357Z,39.50
2019-02-05T10:09:51.819Z,38.60
2019-02-05T10:12:19.316Z,36.03
2019-02-05T10:14:46.772Z,31.13
2019-02-05T10:17:14.250Z,33.10
2019-02-05T10:19:41.716Z,32.70
2019-02-05T10:22:09.187Z,51.07
2019-02-05T10:24:36.664Z,50.97
2019-02-05T10:27:04.118Z,34.50
2019-02-05T10:29:31.608Z,37.13
2019-02-05T10:31:59.057Z,40.50
2019-02-05T10:34:33.900Z,33.40
2019-02-05T10:36:54.020Z,29.60
2019-02-05T10:39:21.505Z,37.27
2019-02-05T10:41:48.966Z,33.27
2019-02-05T10:44:16.453Z,29.30
2019-02-05T10:46:43.929Z,32.60
2019-02-05T10:49:11.430Z,32.47
2019-02-05T10:51:38.886Z,28.93
2019-02-05T10:54:06.374Z,30.10
2019-02-05T10:56:33.835Z,28.90
2019-02-05T10:59:01.292Z,30.20
2019-02-05T11:01:28.770Z,27.30
2019-02-05T11:03:56.224Z,30.07
2019-02-05T11:06:23.703Z,31.27
2019-02-05T11:08:51.174Z,30.87
2019-02-05T11:11:18.657Z,27.53
2019-02-05T11:13:46.116Z,34.03
2019-02-05T11:16:13.615Z,34.97
2019-02-05T11:18:41.050Z,26.37
2019-02-05T11:21:08.529Z,27.17
2019-02-05T11:23:35.981Z,31.43
2019-02-05T11:26:03.465Z,29.90
2019-02-05T11:28:30.914Z,28.50
2019-02-05T11:30:58.397Z,27.10
2019-02-05T11:33:25.848Z,27.97
2019-02-05T11:35:53.331Z,27.43
2019-02-05T11:38:20.800Z,25.50
2019-02-05T11:40:48.281Z,30.47
2019-02-05T11:43:15.727Z,24.50
2019-02-05T11:45:43.203Z,24.10
2019-02-05T11:48:10.676Z,21.63
2019-02-05T11:50:38.153Z,27.20
2019-02-05T11:53:05.616Z,24.30
2019-02-05T11:55:33.071Z,27.90
2019-02-05T11:58:00.566Z,28.13
2019-02-05T12:00:32.659Z,25.50
2019-02-05T12:02:55.480Z,31.43
2019-02-05T12:05:22.939Z,27.17
2019-02-05T12:07:50.427Z,24.57
2019-02-05T12:10:17.885Z,26.50
2019-02-05T12:12:45.374Z,19.93
2019-02-05T12:15:15.765Z,21.70
2019-02-05T12:17:43.223Z,20.53
2019-02-05T12:20:16.429Z,25.60
2019-02-05T12:22:43.887Z,29.97
2019-02-05T12:25:17.221Z,32.90
2019-02-05T12:27:44.704Z,28.50
2019-02-05T12:30:18.190Z,22.27
2019-02-05T12:32:45.647Z,19.70
2019-02-05T12:35:13.106Z,19.03
2019-02-05T12:37:40.591Z,21.33
2019-02-05T12:40:08.075Z,22.80
2019-02-05T12:42:35.553Z,17.40
2019-02-05T12:45:03.009Z,19.57
2019-02-05T12:47:30.567Z,14.13
2019-02-05T12:49:57.988Z,18.13
2019-02-05T12:52:25.467Z,16.63
2019-02-05T12:54:52.929Z,18.27
2019-02-05T12:57:20.409Z,17.83
2019-02-05T12:59:47.877Z,20.40
2019-02-05T13:02:15.367Z,19.53
2019-02-05T13:04:42.835Z,20.97
2019-02-05T13:07:10.320Z,19.77
2019-02-05T13:09:37.804Z,23.33
2019-02-05T13:12:05.260Z,22.40
2019-02-05T13:14:32.786Z,16.93
2019-02-05T13:17:00.198Z,18.60
2019-02-05T13:19:27.656Z,17.17
2019-02-05T13:21:55.134Z,17.97
2019-02-05T13:24:22.620Z,16.17
2019-02-05T13:26:50.116Z,14.63
2019-02-05T13:29:17.575Z,17.07
2019-02-05T13:31:45.073Z,16.63
2019-02-05T13:34:12.561Z,22.57
2019-02-05T13:36:40.053Z,16.27
2019-02-05T13:39:07.527Z,21.90
2019-02-05T13:41:35.009Z,16.20
2019-02-05T13:44:02.488Z,18.00
2019-02-05T13:46:29.948Z,16.67
2019-02-05T13:48:57.426Z,13.17
2019-02-05T13:51:24.920Z,17.83
2019-02-05T13:53:52.370Z,14.67
2019-02-05T13:56:19.833Z,25.83
2019-02-05T13:58:47.310Z,74.17
2019-02-05T14:01:19.948Z,55.97
2019-02-05T14:03:42.288Z,37.63
2019-02-05T14:06:09.767Z,15.87
2019-02-05T14:08:37.227Z,14.20
2019-02-05T14:11:04.717Z,15.50
2019-02-05T14:13:32.187Z,15.10
2019-02-05T14:15:59.687Z,15.67
2019-02-05T14:18:27.167Z,14.83
2019-02-05T14:20:54.644Z,13.77
2019-02-05T14:23:22.122Z,20.47
2019-02-05T14:25:49.598Z,16.27
2019-02-05T14:28:17.054Z,17.83
2019-02-05T14:30:50.156Z,14.73
2019-02-05T14:33:17.642Z,16.10
2019-02-05T14:35:45.118Z,13.90
2019-02-05T14:38:12.580Z,14.07
2019-02-05T14:40:40.063Z,13.73
2019-02-05T14:43:07.543Z,12.57
2019-02-05T14:45:35.019Z,14.70
2019-02-05T14:48:02.504Z,14.13
2019-02-05T14:50:30.024Z,14.97
2019-02-05T14:52:57.483Z,13.13
2019-02-05T14:55:24.962Z,14.50
2019-02-05T14:57:52.469Z,13.20
2019-02-05T15:00:19.921Z,13.03
2019-02-05T15:02:47.407Z,14.37
2019-02-05T15:05:14.886Z,12.77
2019-02-05T15:07:42.340Z,14.03
2019-02-05T15:10:12.764Z,15.83
2019-02-05T15:12:40.256Z,15.77
2019-02-05T15:15:07.725Z,16.73
2019-02-05T15:17:35.201Z,16.37
2019-02-05T15:20:02.665Z,15.33
2019-02-05T15:22:30.138Z,17.13
2019-02-05T15:24:57.604Z,14.40
2019-02-05T15:27:25.099Z,15.60
2019-02-05T15:29:52.554Z,15.70
2019-02-05T15:32:20.060Z,14.50
2019-02-05T15:34:47.566Z,15.30
2019-02-05T15:37:15.029Z,15.83
2019-02-05T15:39:42.507Z,16.80
2019-02-05T15:42:10.042Z,15.63
2019-02-05T15:44:37.502Z,18.03
2019-02-05T15:47:05.002Z,15.87
2019-02-05T15:49:32.469Z,15.20
2019-02-05T15:51:59.949Z,17.00
2019-02-05T15:54:27.461Z,13.10
2019-02-05T15:56:54.941Z,17.37
2019-02-05T15:59:22.443Z,15.17
2019-02-05T16:01:49.903Z,17.70
2019-02-05T16:04:17.392Z,16.40
2019-02-05T16:06:44.920Z,14.97
2019-02-05T16:09:12.382Z,16.03
2019-02-05T16:11:39.871Z,13.60
2019-02-05T16:14:07.368Z,16.70
2019-02-05T16:16:34.871Z,17.23
2019-02-05T16:19:02.351Z,17.17
2019-02-05T16:21:29.967Z,20.47
2019-02-05T16:23:58.280Z,17.80
2019-02-05T16:26:25.022Z,16.63
2019-02-05T16:28:52.563Z,16.40
2019-02-05T16:31:20.187Z,15.60
2019-02-05T16:33:47.740Z,14.27
2019-02-05T16:36:15.198Z,16.30
2019-02-05T16:38:42.702Z,12.77
2019-02-05T16:41:10.233Z,15.10
2019-02-05T16:43:37.724Z,11.83
2019-02-05T16:46:05.255Z,14.27
2019-02-05T16:48:32.776Z,13.23
2019-02-05T16:51:00.261Z,10.97
2019-02-05T16:53:27.759Z,12.93
2019-02-05T16:55:55.217Z,12.93
2019-02-05T16:58:22.760Z,11.63
2019-02-05T17:00:50.195Z,12.53
2019-02-05T17:03:17.671Z,12.83
2019-02-05T17:05:45.151Z,13.33
2019-02-05T17:08:12.647Z,12.67
2019-02-05T17:10:40.145Z,14.90
2019-02-05T17:13:07.604Z,17.03
2019-02-05T17:15:35.505Z,20.33
2019-02-05T17:18:03.018Z,17.97
2019-02-05T17:20:30.510Z,14.97
2019-02-05T17:23:00.451Z,15.37
2019-02-05T17:25:25.585Z,17.33
2019-02-05T17:27:53.194Z,16.37
2019-02-05T17:30:26.298Z,14.97
2019-02-05T17:32:53.770Z,12.03
2019-02-05T17:35:21.267Z,15.10
2019-02-05T17:37:48.723Z,11.97
2019-02-05T17:40:18.695Z,13.50
2019-02-05T17:42:46.154Z,11.87
2019-02-05T17:45:13.637Z,10.73
2019-02-05T17:47:41.116Z,11.53
2019-02-05T17:50:08.558Z,9.37
2019-02-05T17:52:36.052Z,10.17
2019-02-05T17:55:03.510Z,8.77
2019-02-05T17:57:33.362Z,10.30
2019-02-05T18:00:00.891Z,6.93
2019-02-05T18:02:28.405Z,9.53
2019-02-05T18:05:01.426Z,6.37
2019-02-05T18:07:29.187Z,4.93
2019-02-05T18:09:57.846Z,4.70
2019-02-05T18:12:24.193Z,4.50
2019-02-05T18:14:51.653Z,4.20
2019-02-05T18:17:19.123Z,4.10
2019-02-05T18:19:46.614Z,4.10
2019-02-05T18:22:14.106Z,4.80
2019-02-05T18:24:41.590Z,4.10
2019-02-05T18:27:09.074Z,3.47
2019-02-05T18:29:36.551Z,5.00
2019-02-05T18:32:04.033Z,5.20
2019-02-05T18:34:31.501Z,4.93
2019-02-05T18:36:58.979Z,5.13
2019-02-05T18:39:26.432Z,6.00
2019-02-05T18:41:54.036Z,5.87
2019-02-05T18:44:21.446Z,4.43
2019-02-05T18:46:48.993Z,5.80
2019-02-05T18:49:16.472Z,4.47
2019-02-05T18:51:45.032Z,4.97
2019-02-05T18:54:12.634Z,6.67
2019-02-05T18:56:40.113Z,7.03
2019-02-05T18:59:07.626Z,5.73
2019-02-05T19:01:35.107Z,6.07
2019-02-05T19:04:02.554Z,4.53
2019-02-05T19:06:31.380Z,6.20
2019-02-05T19:08:57.521Z,5.63
2019-02-05T19:11:24.969Z,6.03
2019-02-05T19:13:52.453Z,6.07
2019-02-05T19:16:19.913Z,6.40
2019-02-05T19:18:47.378Z,7.63
2019-02-05T19:21:14.848Z,6.80
2019-02-05T19:23:42.360Z,7.43
2019-02-05T19:26:09.798Z,6.30
2019-02-05T19:28:37.279Z,7.70
2019-02-05T19:31:04.754Z,5.90
2019-02-05T19:33:32.230Z,5.07
2019-02-05T19:35:59.798Z,6.10
2019-02-05T19:38:27.245Z,5.27
2019-02-05T19:41:00.602Z,5.63
2019-02-05T19:43:28.911Z,4.30
2019-02-05T19:45:56.400Z,5.97
2019-02-05T19:48:23.840Z,4.93
2019-02-05T19:50:51.309Z,5.50
2019-02-05T19:53:18.757Z,6.50
2019-02-05T19:55:46.255Z,7.23
2019-02-05T19:58:13.704Z,7.00
2019-02-05T20:00:41.163Z,7.40
2019-02-05T20:03:08.707Z,6.77
2019-02-05T20:05:36.182Z,8.23
2019-02-05T20:08:03.665Z,8.10
2019-02-05T20:10:31.120Z,8.33
2019-02-05T20:12:58.647Z,6.97
2019-02-05T20:15:26.181Z,7.07
2019-02-05T20:17:53.770Z,9.40
2019-02-05T20:20:21.366Z,6.87
2019-02-05T20:22:48.861Z,9.67
2019-02-05T20:25:16.398Z,10.20
2019-02-05T20:27:43.911Z,8.97
2019-02-05T20:30:17.364Z,8.13
2019-02-05T20:32:44.818Z,9.50
2019-02-05T20:35:12.334Z,8.40
2019-02-05T20:37:39.852Z,11.07
2019-02-05T20:40:07.444Z,9.63
2019-02-05T20:42:34.873Z,9.70
2019-02-05T20:45:02.396Z,9.60
2019-02-05T20:47:29.826Z,10.07
2019-02-05T20:49:57.429Z,9.67
2019-02-05T20:52:24.888Z,10.20
2019-02-05T20:54:52.419Z,11.67
2019-02-05T20:57:19.837Z,12.53
2019-02-05T20:59:47.367Z,11.13
2019-02-05T21:02:14.856Z,10.37
2019-02-05T21:04:48.359Z,10.23
2019-02-05T21:07:09.859Z,11.60
2019-02-05T21:09:37.324Z,12.33
2019-02-05T21:12:04.808Z,12.47
2019-02-05T21:14:32.258Z,10.20
2019-02-05T21:16:59.900Z,11.47
2019-02-05T21:19:27.312Z,11.30
2019-02-05T21:21:54.790Z,11.90
2019-02-05T21:24:22.255Z,11.73
2019-02-05T21:26:49.788Z,14.00
2019-02-05T21:29:17.234Z,13.50
2019-02-05T21:31:44.785Z,12.27
2019-02-05T21:34:16.237Z,14.10
2019-02-05T21:36:41.212Z,12.57
2019-02-05T21:39:07.249Z,12.40
2019-02-05T21:41:34.785Z,16.07
2019-02-05T21:44:04.822Z,11.23
2019-02-05T21:46:32.272Z,14.03
2019-02-05T21:49:00.034Z,11.57
2019-02-05T21:51:39.914Z,12.77
2019-02-05T21:53:54.984Z,16.93
2019-02-05T21:56:22.478Z,13.87
2019-02-05T21:58:49.976Z,14.73
2019-02-05T22:01:17.515Z,13.13
2019-02-05T22:03:45.007Z,14.10
2019-02-05T22:06:12.511Z,16.57
2019-02-05T22:08:39.991Z,17.23
2019-02-05T22:11:07.484Z,15.73
2019-02-05T22:13:34.904Z,14.07
2019-02-05T22:16:02.417Z,14.90
2019-02-05T22:18:30.910Z,13.83
2019-02-05T22:20:58.426Z,17.13
2019-02-05T22:23:25.850Z,15.47
2019-02-05T22:25:53.362Z,17.37
2019-02-05T22:28:20.980Z,15.83
2019-02-05T22:30:48.476Z,16.43
2019-02-05T22:33:15.937Z,18.03
2019-02-05T22:35:43.407Z,16.40
2019-02-05T22:38:10.901Z,18.30
2019-02-05T22:40:38.435Z,17.60
2019-02-05T22:43:05.874Z,16.93
2019-02-05T22:45:33.395Z,19.07
2019-02-05T22:48:00.853Z,23.23
2019-02-05T22:50:28.352Z,19.63
2019-02-05T22:52:58.396Z,18.17
2019-02-05T22:55:25.909Z,18.13
2019-02-05T22:57:53.386Z,16.70
2019-02-05T23:00:42.435Z,16.33
2019-02-05T23:03:10.032Z,19.37
2019-02-05T23:06:11.214Z,22.40
2019-02-05T23:08:38.717Z,23.80
2019-02-05T23:11:24.749Z,20.17
2019-02-05T23:13:52.231Z,21.03
2019-02-05T23:16:19.721Z,18.70
2019-02-05T23:18:48.689Z,19.40
2019-02-05T23:21:16.114Z,20.43
2019-02-05T23:23:43.639Z,19.67
2019-02-05T23:26:11.049Z,14.13
2019-02-05T23:28:38.464Z,16.83
2019-02-05T23:31:05.907Z,14.40
2019-02-05T23:33:33.341Z,16.87
2019-02-05T23:36:00.822Z,17.07
2019-02-05T23:38:29.460Z,15.90
2019-02-05T23:40:55.696Z,18.90
2019-02-05T23:43:23.128Z,16.80
2019-02-05T23:46:00.967Z,16.40
2019-02-05T23:48:18.024Z,15.23
2019-02-05T23:50:45.538Z,16.90
2019-02-05T23:53:12.880Z,20.97
2019-02-05T23:55:40.326Z,19.17
2019-02-05T23:58:07.740Z,17.87
